Archival Weather

Chicago O'Hare International

Chicago, Illinois (KORD)

Report from: Sunday, March 6, 2022 8:51 PM CST
Current time: Saturday, February 4, 2023 10:05 PM CST

Current weather
Weather history
Weather forecast

Temperature2.8°C (37.0°F)
Wind chill0.2°C (32.4°F)
Dew point-2.2°C (28.0°F)
Winds 5 kts (2.6 m/s, 5.8 mph) North-Northeast (20°)
Visibility10 mi. (16.1 km)
Clouds Scattered clouds 2,700 ft. (823 m)
Ceiling: Broken clouds 18,000 ft. (5,486 m)
Altimeter29.98 in.Hg (1015 mB)
Relative humidity70 %
Density altitude-1,469 ft. (-448 m)
Sea-level pressure101.6 kPa (1016 mB, 29.99 in.Hg)
Remarks System requires maintenance
Automated weather observing station with precipitation discriminator
Pressure falling more slowly
Flight conditions Visual Meteorological Conditions
Raw dataKORD 070251Z 02005KT 10SM SCT027 BKN180 03/M02 A2998 RMK AO2 SLP157 T00281022 56020 $
An unhandled exception has occurred. See browser dev tools for details. Reload 🗙